Time;durP1;ratioP1;P1;durP2;ratioP2;P2;SDS_P1;SDS_P2;PMS_P1;PMS_P2;Temp;Humidity;BMP_temperature;BMP_pressure;BME280_temperature;BME280_humidity;BME280_pressure;Samples;Min_cycle;Max_cycle;Signal;HPM_P1;HPM_P2
2021/09/08 00:01:17;;;;;;;10.30;8.30;;;16.50;99.90;;;;;;4826199;29;20186;-63
2021/09/08 00:03:42;;;;;;;14.57;9.27;;;16.50;99.90;;;;;;4826212;29;20209;-62
2021/09/08 00:06:08;;;;;;;14.00;9.30;;;16.40;99.90;;;;;;4826135;29;20428;-63
2021/09/08 00:08:34;;;;;;;12.40;9.30;;;16.40;99.90;;;;;;4826116;29;20445;-62
2021/09/08 00:10:59;;;;;;;11.63;9.27;;;16.30;99.90;;;;;;4824519;29;20639;-63
2021/09/08 00:13:25;;;;;;;12.70;9.50;;;16.30;99.90;;;;;;4826099;29;20213;-62
2021/09/08 00:15:51;;;;;;;9.23;8.20;;;16.30;99.90;;;;;;4825826;29;20313;-62
2021/09/08 00:18:17;;;;;;;11.07;8.97;;;16.20;99.90;;;;;;4824605;29;20205;-64
2021/09/08 00:20:43;;;;;;;13.10;8.83;;;16.20;99.90;;;;;;4824669;29;20447;-63
2021/09/08 00:23:08;;;;;;;13.30;9.40;;;16.10;99.90;;;;;;4825878;29;20190;-62
2021/09/08 00:25:34;;;;;;;9.70;8.67;;;16.10;99.90;;;;;;4824625;29;20589;-62
2021/09/08 00:27:59;;;;;;;11.03;8.67;;;16.10;99.90;;;;;;4825720;29;20182;-62
2021/09/08 00:30:25;;;;;;;13.17;8.70;;;16.00;99.90;;;;;;4825894;29;20193;-62
2021/09/08 00:32:50;;;;;;;12.23;9.17;;;16.00;99.90;;;;;;4824405;29;20181;-62
2021/09/08 00:35:16;;;;;;;13.33;9.37;;;16.00;99.90;;;;;;4825464;29;20734;-64
2021/09/08 00:37:42;;;;;;;10.30;9.07;;;15.90;99.90;;;;;;4825553;29;20588;-62
2021/09/08 00:40:09;;;;;;;12.67;9.80;;;15.90;99.90;;;;;;4825500;29;20228;-62
2021/09/08 00:42:35;;;;;;;12.30;9.00;;;15.90;99.90;;;;;;4825575;29;20178;-62
2021/09/08 00:45:01;;;;;;;14.30;8.13;;;15.80;99.90;;;;;;4825940;29;20453;-62
2021/09/08 00:47:26;;;;;;;11.00;8.30;;;15.80;99.90;;;;;;4825595;29;20391;-64
2021/09/08 00:49:52;;;;;;;11.53;8.50;;;15.80;99.90;;;;;;4825852;29;20669;-62
2021/09/08 00:52:18;;;;;;;15.33;8.93;;;15.70;99.90;;;;;;4824207;29;20200;-64
2021/09/08 00:54:47;;;;;;;14.03;9.40;;;15.70;99.90;;;;;;4825706;29;20198;-62
2021/09/08 00:57:14;;;;;;;10.50;9.13;;;15.70;99.90;;;;;;4825391;29;20538;-64
2021/09/08 00:59:41;;;;;;;13.03;9.23;;;15.70;99.90;;;;;;4825678;29;20461;-62
2021/09/08 01:02:07;;;;;;;12.20;9.00;;;15.60;99.90;;;;;;4824011;29;20436;-62
2021/09/08 01:04:32;;;;;;;11.17;9.20;;;15.60;99.90;;;;;;4825522;29;20519;-63
2021/09/08 01:06:59;;;;;;;11.70;8.90;;;15.60;99.90;;;;;;4823975;29;20186;-63
2021/09/08 01:09:25;;;;;;;12.47;9.87;;;15.50;99.90;;;;;;4825677;29;20594;-62
2021/09/08 01:11:51;;;;;;;10.70;8.80;;;15.50;99.90;;;;;;4824004;29;20455;-63
2021/09/08 01:14:16;;;;;;;14.27;10.60;;;15.50;99.90;;;;;;4825371;29;20441;-62
2021/09/08 01:16:42;;;;;;;10.43;9.40;;;15.50;99.90;;;;;;4825019;29;20249;-62
2021/09/08 01:19:07;;;;;;;11.47;9.33;;;15.50;99.90;;;;;;4823865;29;20646;-62
2021/09/08 01:21:33;;;;;;;10.20;8.60;;;15.40;99.90;;;;;;4825142;29;20585;-63
2021/09/08 01:24:09;;;;;;;13.03;8.53;;;15.40;99.90;;;;;;4824524;29;20198;-62
2021/09/08 01:26:35;;;;;;;11.50;8.70;;;15.40;99.90;;;;;;4825158;29;20214;-63
2021/09/08 01:29:02;;;;;;;14.00;9.30;;;15.30;99.90;;;;;;4825129;29;20948;-62
2021/09/08 01:31:27;;;;;;;12.70;8.70;;;15.30;99.90;;;;;;4825016;29;20610;-62
2021/09/08 01:33:53;;;;;;;12.87;10.07;;;15.30;99.90;;;;;;4824771;29;20441;-62
2021/09/08 01:36:19;;;;;;;13.93;10.10;;;15.20;99.90;;;;;;4824881;29;20222;-63
2021/09/08 01:38:45;;;;;;;10.90;8.67;;;15.20;99.90;;;;;;4823547;29;20473;-62
2021/09/08 01:41:10;;;;;;;13.73;9.07;;;15.20;99.90;;;;;;4824801;29;20505;-63
2021/09/08 01:43:36;;;;;;;16.63;9.23;;;15.20;99.90;;;;;;4824901;29;20209;-62
2021/09/08 01:46:02;;;;;;;15.70;8.60;;;15.20;99.90;;;;;;4824719;29;20201;-62
2021/09/08 01:48:28;;;;;;;11.27;8.07;;;15.20;99.90;;;;;;4824645;29;20269;-62
2021/09/08 01:50:53;;;;;;;13.17;9.47;;;15.10;99.90;;;;;;4824741;29;20182;-62
2021/09/08 01:53:19;;;;;;;15.53;8.97;;;15.10;99.90;;;;;;4824768;29;20457;-64
2021/09/08 01:55:47;;;;;;;11.63;8.47;;;15.10;99.90;;;;;;4824636;29;20252;-64
2021/09/08 01:58:13;;;;;;;14.37;10.20;;;15.00;99.90;;;;;;4824722;29;20297;-64
2021/09/08 02:00:38;;;;;;;12.83;9.30;;;15.00;99.90;;;;;;4824568;29;20462;-62
2021/09/08 02:03:04;;;;;;;14.70;9.50;;;15.00;99.90;;;;;;4824415;29;20186;-62
2021/09/08 02:05:29;;;;;;;11.30;9.33;;;15.00;99.90;;;;;;4824574;29;20209;-62
2021/09/08 02:07:55;;;;;;;12.23;8.93;;;15.00;99.90;;;;;;4823195;29;20268;-62
2021/09/08 02:10:21;;;;;;;10.70;8.23;;;14.90;99.90;;;;;;4824504;29;20269;-63
2021/09/08 02:12:46;;;;;;;11.47;8.83;;;14.90;99.90;;;;;;4824402;29;20174;-62
2021/09/08 02:15:12;;;;;;;11.73;8.40;;;14.90;99.90;;;;;;4823068;29;20261;-62
2021/09/08 02:17:38;;;;;;;12.47;9.00;;;14.90;99.90;;;;;;4824257;29;20197;-63
2021/09/08 02:20:04;;;;;;;11.70;9.50;;;14.80;99.90;;;;;;4823123;29;20304;-62
2021/09/08 02:22:30;;;;;;;11.87;9.33;;;14.80;99.90;;;;;;4823431;29;20404;-63
2021/09/08 02:24:56;;;;;;;13.03;9.20;;;14.70;99.90;;;;;;4824699;29;20445;-62
2021/09/08 02:27:24;;;;;;;11.20;10.00;;;14.70;99.90;;;;;;4824372;29;20201;-63
2021/09/08 02:29:49;;;;;;;10.40;8.57;;;14.70;99.90;;;;;;4824785;29;20198;-62
2021/09/08 02:32:15;;;;;;;10.77;9.57;;;14.60;99.90;;;;;;4824311;29;20428;-63
2021/09/08 02:34:41;;;;;;;13.27;10.50;;;14.60;99.90;;;;;;4825715;29;20316;-62
2021/09/08 02:37:06;;;;;;;13.77;9.10;;;14.60;99.90;;;;;;4826203;29;20272;-62
2021/09/08 02:39:34;;;;;;;14.37;9.30;;;14.50;99.90;;;;;;4827777;29;20216;-62
2021/09/08 02:42:00;;;;;;;12.80;9.47;;;14.50;99.90;;;;;;4826237;29;20198;-63
2021/09/08 02:44:25;;;;;;;12.83;8.60;;;14.50;99.90;;;;;;4827783;29;20457;-62
2021/09/08 02:46:51;;;;;;;11.67;9.10;;;14.40;99.90;;;;;;4827328;29;20197;-62
2021/09/08 02:49:17;;;;;;;15.30;9.00;;;14.40;99.90;;;;;;4826149;29;20217;-62
2021/09/08 02:51:42;;;;;;;12.50;9.20;;;14.40;99.90;;;;;;4827270;29;20178;-62
2021/09/08 02:54:08;;;;;;;14.10;9.07;;;14.40;99.90;;;;;;4827533;29;20271;-63
2021/09/08 02:56:34;;;;;;;13.40;10.00;;;14.40;99.90;;;;;;4827201;29;20217;-62
2021/09/08 02:58:59;;;;;;;12.07;8.63;;;14.30;99.90;;;;;;4827293;29;20201;-63
2021/09/08 03:01:25;;;;;;;14.27;9.23;;;14.30;99.90;;;;;;4827363;29;20197;-62
2021/09/08 03:03:50;;;;;;;11.00;8.73;;;14.30;99.90;;;;;;4827175;29;20254;-62
2021/09/08 03:06:16;;;;;;;11.90;8.90;;;14.30;99.90;;;;;;4826997;29;20704;-63
2021/09/08 03:08:41;;;;;;;11.87;9.23;;;14.20;99.90;;;;;;4827031;29;20583;-62
2021/09/08 03:11:07;;;;;;;13.80;8.60;;;14.20;99.90;;;;;;4826972;29;20189;-63
2021/09/08 03:13:33;;;;;;;11.77;8.97;;;14.30;99.90;;;;;;4826995;29;20235;-63
2021/09/08 03:15:58;;;;;;;12.70;8.80;;;14.30;99.90;;;;;;4826788;29;20675;-64
2021/09/08 03:18:24;;;;;;;10.27;8.30;;;14.40;99.90;;;;;;4827072;29;20222;-64
2021/09/08 03:20:49;;;;;;;13.10;8.50;;;14.40;99.90;;;;;;4826801;29;20190;-62
2021/09/08 03:23:15;;;;;;;12.40;9.30;;;14.40;99.90;;;;;;4826762;29;20235;-63
2021/09/08 03:25:41;;;;;;;12.30;8.90;;;14.50;99.90;;;;;;4825220;29;20197;-63
2021/09/08 03:28:06;;;;;;;14.53;9.30;;;14.50;99.90;;;;;;4825423;29;20637;-62
2021/09/08 03:30:32;;;;;;;12.97;9.37;;;14.50;99.90;;;;;;4826651;29;20190;-62
2021/09/08 03:32:58;;;;;;;15.40;9.93;;;14.60;99.90;;;;;;4826586;29;20190;-62
2021/09/08 03:35:24;;;;;;;14.30;10.50;;;14.60;99.90;;;;;;4826446;29;20524;-62
2021/09/08 03:37:49;;;;;;;15.13;10.00;;;14.60;99.90;;;;;;4826513;29;20208;-62
2021/09/08 03:40:16;;;;;;;16.90;12.80;;;14.60;99.90;;;;;;4826593;29;20689;-63
2021/09/08 03:42:41;;;;;;;12.57;10.20;;;14.60;99.90;;;;;;4826378;29;20215;-62
2021/09/08 03:45:09;;;;;;;13.03;10.40;;;14.60;99.90;;;;;;4826442;29;20948;-62
2021/09/08 03:47:35;;;;;;;15.83;10.40;;;14.60;99.90;;;;;;4825796;29;20178;-64
2021/09/08 03:50:00;;;;;;;15.60;10.97;;;14.60;99.90;;;;;;4825225;29;20818;-63
2021/09/08 03:52:26;;;;;;;10.90;8.93;;;14.60;99.90;;;;;;4826324;29;20416;-62
2021/09/08 03:54:52;;;;;;;14.20;10.20;;;14.60;99.90;;;;;;4826610;29;20258;-62
2021/09/08 03:57:17;;;;;;;12.23;10.30;;;14.60;99.90;;;;;;4826329;29;20272;-63
2021/09/08 03:59:43;;;;;;;10.97;9.37;;;14.60;99.90;;;;;;4826391;29;20533;-63
2021/09/08 04:02:08;;;;;;;18.57;10.53;;;14.60;99.90;;;;;;4824936;29;20622;-63
2021/09/08 04:04:34;;;;;;;14.97;10.60;;;14.60;99.90;;;;;;4826425;29;20202;-62
2021/09/08 04:06:59;;;;;;;15.17;10.20;;;14.60;99.90;;;;;;4826038;29;20223;-64
2021/09/08 04:09:25;;;;;;;13.27;9.77;;;14.70;99.90;;;;;;4826336;29;20581;-62
2021/09/08 04:11:51;;;;;;;16.50;9.97;;;14.70;99.90;;;;;;4825830;29;20193;-64
2021/09/08 04:14:16;;;;;;;11.67;9.33;;;14.70;99.90;;;;;;4826140;29;20288;-64
2021/09/08 04:16:42;;;;;;;10.93;9.63;;;14.70;99.90;;;;;;4825602;29;20217;-63
2021/09/08 04:19:07;;;;;;;16.20;10.73;;;14.60;99.90;;;;;;4825849;29;20680;-62
2021/09/08 04:21:33;;;;;;;13.97;10.80;;;14.60;99.90;;;;;;4825965;29;20284;-62
2021/09/08 04:24:00;;;;;;;14.20;9.30;;;14.60;99.90;;;;;;4825668;29;20258;-62
2021/09/08 04:26:25;;;;;;;16.10;10.80;;;14.60;99.90;;;;;;4824466;29;20186;-64
2021/09/08 04:28:51;;;;;;;13.97;10.70;;;14.60;99.90;;;;;;4823047;29;20502;-62
2021/09/08 04:31:17;;;;;;;13.10;10.17;;;14.60;99.90;;;;;;4824125;29;20190;-63
2021/09/08 04:33:43;;;;;;;13.60;9.60;;;14.50;99.90;;;;;;4824703;29;20584;-62
2021/09/08 04:36:08;;;;;;;15.67;10.03;;;14.50;99.90;;;;;;4824449;29;20284;-62
2021/09/08 04:38:34;;;;;;;15.87;10.93;;;14.50;99.90;;;;;;4825662;29;20468;-62
2021/09/08 04:41:00;;;;;;;14.07;9.93;;;14.50;99.90;;;;;;4825083;29;20445;-63
2021/09/08 04:43:26;;;;;;;14.63;10.83;;;14.50;99.90;;;;;;4823648;29;20210;-62
2021/09/08 04:45:52;;;;;;;15.40;10.37;;;14.50;99.90;;;;;;4823579;29;20189;-62
2021/09/08 04:48:18;;;;;;;23.00;11.13;;;14.50;99.90;;;;;;4825392;29;20465;-64
2021/09/08 04:50:43;;;;;;;18.40;10.83;;;14.50;99.90;;;;;;4825462;29;20190;-63
2021/09/08 04:53:09;;;;;;;15.33;10.67;;;14.50;99.90;;;;;;4825342;29;20452;-62
2021/09/08 04:55:35;;;;;;;14.73;10.23;;;14.50;99.90;;;;;;4825424;29;20265;-63
2021/09/08 04:58:00;;;;;;;12.23;9.80;;;14.50;99.90;;;;;;4823165;29;20625;-62
2021/09/08 05:00:26;;;;;;;15.03;9.90;;;14.50;99.90;;;;;;4824462;29;20387;-63
2021/09/08 05:02:52;;;;;;;14.97;10.17;;;14.60;99.90;;;;;;4824669;29;20208;-62
2021/09/08 05:05:18;;;;;;;14.27;10.57;;;14.60;99.90;;;;;;4824214;29;20433;-63
2021/09/08 05:07:43;;;;;;;19.03;10.93;;;14.60;99.90;;;;;;4824925;29;20291;-62
2021/09/08 05:10:10;;;;;;;18.83;11.10;;;14.60;99.90;;;;;;4824219;29;20246;-62
2021/09/08 05:12:36;;;;;;;12.23;10.27;;;14.60;99.90;;;;;;4822678;29;20204;-62
2021/09/08 05:15:03;;;;;;;12.87;10.80;;;14.60;99.90;;;;;;4822045;29;21076;-63
2021/09/08 05:17:29;;;;;;;13.67;9.80;;;14.70;99.90;;;;;;4823803;29;20421;-63
2021/09/08 05:19:54;;;;;;;15.87;10.10;;;14.80;99.90;;;;;;4822895;29;20798;-63
2021/09/08 05:22:20;;;;;;;15.63;10.43;;;14.80;99.90;;;;;;4822568;29;20182;-63
2021/09/08 05:24:45;;;;;;;15.40;10.50;;;14.90;99.90;;;;;;4822063;29;20253;-62
2021/09/08 05:27:11;;;;;;;16.13;10.40;;;14.90;99.90;;;;;;4823251;29;20276;-63
2021/09/08 05:29:37;;;;;;;17.00;11.23;;;15.00;99.90;;;;;;4823843;29;20210;-63
2021/09/08 05:32:03;;;;;;;11.63;10.03;;;15.10;99.90;;;;;;4821757;29;20213;-64
2021/09/08 05:34:29;;;;;;;12.90;10.57;;;15.10;99.90;;;;;;4819869;29;20246;-62
2021/09/08 05:36:54;;;;;;;15.87;11.03;;;15.20;99.90;;;;;;4820731;29;20482;-62
2021/09/08 05:39:20;;;;;;;15.83;11.43;;;15.30;99.90;;;;;;4820153;29;20292;-62
2021/09/08 05:41:46;;;;;;;14.60;11.17;;;15.30;99.90;;;;;;4816770;29;20226;-63
2021/09/08 05:44:11;;;;;;;15.73;10.50;;;15.40;99.90;;;;;;4814531;29;20403;-62
2021/09/08 05:46:37;;;;;;;15.73;11.47;;;15.40;99.90;;;;;;4813649;29;20186;-63
2021/09/08 05:49:02;;;;;;;17.53;11.90;;;15.50;99.90;;;;;;4821475;29;20213;-64
2021/09/08 05:51:28;;;;;;;16.80;10.93;;;15.50;99.90;;;;;;4820227;29;20198;-63
2021/09/08 05:53:54;;;;;;;16.70;10.90;;;15.70;99.90;;;;;;4821269;29;20232;-64
2021/09/08 05:56:19;;;;;;;16.73;10.97;;;15.70;99.90;;;;;;4819571;29;20222;-62
2021/09/08 05:58:45;;;;;;;16.17;11.67;;;15.80;99.90;;;;;;4821753;29;20366;-62
2021/09/08 06:01:10;;;;;;;12.00;9.60;;;15.90;99.90;;;;;;4821422;29;20198;-62
2021/09/08 06:03:36;;;;;;;16.47;11.50;;;16.00;99.90;;;;;;4822697;29;20562;-62
2021/09/08 06:06:01;;;;;;;17.80;10.70;;;16.10;99.90;;;;;;4822407;29;20545;-63
2021/09/08 06:08:28;;;;;;;22.00;13.53;;;16.20;99.90;;;;;;4819132;29;20260;-63
2021/09/08 06:10:54;;;;;;;15.87;11.90;;;16.30;99.90;;;;;;4824634;29;20178;-62
2021/09/08 06:13:21;;;;;;;16.30;10.67;;;16.40;99.90;;;;;;4820053;29;20461;-63
2021/09/08 06:15:46;;;;;;;20.33;11.77;;;16.50;99.90;;;;;;4823880;29;20552;-64
2021/09/08 06:18:12;;;;;;;17.20;11.00;;;16.60;99.90;;;;;;4825487;29;20564;-63
2021/09/08 06:20:37;;;;;;;12.37;10.33;;;16.80;99.90;;;;;;4809216;29;20683;-63
2021/09/08 06:23:03;;;;;;;15.57;10.30;;;16.80;99.90;;;;;;4810971;29;20197;-62
2021/09/08 06:25:29;;;;;;;13.83;11.00;;;17.00;99.90;;;;;;4824828;29;20717;-63
2021/09/08 06:27:55;;;;;;;15.07;10.80;;;17.10;99.90;;;;;;4821513;29;20239;-63
2021/09/08 06:30:20;;;;;;;17.33;11.77;;;17.20;99.90;;;;;;4821602;29;20653;-64
2021/09/08 06:32:46;;;;;;;18.67;10.40;;;17.30;99.90;;;;;;4817275;29;20505;-62
2021/09/08 06:35:11;;;;;;;15.03;11.33;;;17.40;99.90;;;;;;4813647;29;20256;-62
2021/09/08 06:37:37;;;;;;;11.20;9.83;;;17.50;99.90;;;;;;4815278;29;20186;-62
2021/09/08 06:40:03;;;;;;;15.57;10.20;;;17.50;99.90;;;;;;4820836;29;20245;-62
2021/09/08 06:42:29;;;;;;;11.00;9.87;;;17.60;99.90;;;;;;4821904;29;20701;-63
2021/09/08 06:44:55;;;;;;;13.77;9.93;;;17.70;99.90;;;;;;4822487;29;20532;-63
2021/09/08 06:47:21;;;;;;;13.13;10.20;;;17.90;99.90;;;;;;4824032;29;20182;-64
2021/09/08 06:49:48;;;;;;;12.37;9.73;;;18.00;99.90;;;;;;4826724;29;21088;-62
2021/09/08 06:52:14;;;;;;;16.03;9.00;;;18.00;99.90;;;;;;4825145;29;20429;-63
2021/09/08 06:54:40;;;;;;;15.47;9.20;;;18.20;99.90;;;;;;4822911;29;20803;-62
2021/09/08 06:57:06;;;;;;;10.77;8.63;;;18.30;99.90;;;;;;4825895;29;20234;-62
2021/09/08 06:59:31;;;;;;;9.47;8.40;;;18.40;99.90;;;;;;4825978;29;20472;-62
2021/09/08 07:01:58;;;;;;;9.23;7.53;;;18.50;99.90;;;;;;4821099;29;20798;-63
2021/09/08 07:04:24;;;;;;;12.50;8.13;;;18.60;99.90;;;;;;4824082;29;20206;-62
2021/09/08 07:06:50;;;;;;;9.63;7.63;;;18.70;99.90;;;;;;4822195;29;20454;-63
2021/09/08 07:09:15;;;;;;;10.93;7.17;;;18.90;99.90;;;;;;4825659;29;20316;-64
2021/09/08 07:11:41;;;;;;;11.90;7.60;;;19.00;99.90;;;;;;4823656;29;20242;-63
2021/09/08 07:14:07;;;;;;;10.27;6.17;;;19.10;99.90;;;;;;4825993;29;20265;-62
2021/09/08 07:16:32;;;;;;;8.90;6.20;;;19.30;99.90;;;;;;4825043;29;20544;-64
2021/09/08 07:18:58;;;;;;;8.37;5.80;;;19.40;99.90;;;;;;4824910;29;20693;-63
2021/09/08 07:21:23;;;;;;;5.83;5.10;;;19.50;99.90;;;;;;4818802;29;20195;-64
2021/09/08 07:23:49;;;;;;;8.30;6.00;;;19.60;99.90;;;;;;4813989;29;20202;-62
2021/09/08 07:26:15;;;;;;;8.40;6.03;;;19.80;99.90;;;;;;4816267;29;20193;-63
2021/09/08 07:28:40;;;;;;;7.90;5.87;;;19.90;99.90;;;;;;4821892;29;20645;-62
2021/09/08 07:31:06;;;;;;;10.47;6.33;;;20.00;99.90;;;;;;4819106;29;20257;-63
2021/09/08 07:33:32;;;;;;;6.50;5.63;;;20.10;99.90;;;;;;4819567;29;20269;-62
2021/09/08 07:35:57;;;;;;;6.97;5.40;;;20.20;99.90;;;;;;4809900;29;20257;-63
2021/09/08 07:38:25;;;;;;;5.27;4.73;;;20.30;99.90;;;;;;4819095;29;20232;-63
2021/09/08 07:40:51;;;;;;;8.73;5.67;;;20.40;99.90;;;;;;4811942;29;20200;-64
2021/09/08 07:43:18;;;;;;;5.67;5.17;;;20.60;99.90;;;;;;4813794;29;21027;-63
2021/09/08 07:45:44;;;;;;;7.37;5.57;;;20.70;99.90;;;;;;4819322;29;20276;-63
2021/09/08 07:48:10;;;;;;;6.90;5.60;;;20.80;99.90;;;;;;4817156;29;20941;-63
2021/09/08 07:50:36;;;;;;;6.37;5.37;;;20.90;99.90;;;;;;4815102;29;20535;-63
2021/09/08 07:53:04;;;;;;;5.03;4.47;;;21.00;99.90;;;;;;4812647;29;20452;-63
2021/09/08 07:55:30;;;;;;;6.70;5.57;;;21.10;99.90;;;;;;4817357;29;20222;-63
2021/09/08 07:57:56;;;;;;;8.20;6.47;;;21.20;99.80;;;;;;4816431;29;20437;-64
2021/09/08 08:00:21;;;;;;;6.00;4.77;;;21.30;99.90;;;;;;4816698;29;20441;-63
2021/09/08 08:02:49;;;;;;;7.63;5.60;;;21.40;99.30;;;;;;4820267;29;20221;-64
2021/09/08 08:05:16;;;;;;;5.60;5.10;;;21.50;99.40;;;;;;4819474;29;20262;-63
2021/09/08 08:07:43;;;;;;;12.53;5.80;;;21.60;99.50;;;;;;4823368;29;20528;-63
2021/09/08 08:10:09;;;;;;;6.97;4.90;;;21.80;99.30;;;;;;4821043;29;20481;-63
2021/09/08 08:12:35;;;;;;;8.03;4.53;;;21.90;99.30;;;;;;4819122;29;20549;-63
2021/09/08 08:15:01;;;;;;;7.80;4.50;;;22.00;99.00;;;;;;4820549;29;20450;-64
2021/09/08 08:17:27;;;;;;;5.03;4.53;;;22.20;98.60;;;;;;4823744;29;20225;-66
2021/09/08 08:19:52;;;;;;;6.53;3.60;;;22.30;98.00;;;;;;4822466;29;20465;-64
2021/09/08 08:22:18;;;;;;;4.43;4.03;;;22.40;97.00;;;;;;4820884;29;20197;-63
2021/09/08 08:24:44;;;;;;;4.10;3.47;;;22.50;97.20;;;;;;4813485;29;20486;-63
2021/09/08 08:27:10;;;;;;;4.13;3.73;;;22.60;97.10;;;;;;4821399;29;20273;-63
2021/09/08 08:29:35;;;;;;;4.93;4.43;;;22.70;97.30;;;;;;4816001;29;20211;-63
2021/09/08 08:32:01;;;;;;;4.87;3.53;;;22.90;96.50;;;;;;4818679;29;20639;-64
2021/09/08 08:34:27;;;;;;;4.00;3.43;;;23.40;96.60;;;;;;4817027;29;20716;-63
2021/09/08 08:36:52;;;;;;;6.77;4.00;;;24.20;95.30;;;;;;4819539;29;20346;-63
2021/09/08 08:39:19;;;;;;;4.80;3.83;;;25.00;94.80;;;;;;4818849;29;20221;-63
2021/09/08 08:41:45;;;;;;;6.93;4.57;;;26.00;93.00;;;;;;4813235;29;20224;-63
2021/09/08 08:44:10;;;;;;;37.63;8.17;;;26.80;91.80;;;;;;4814309;29;20471;-63
2021/09/08 08:46:36;;;;;;;25.43;5.40;;;27.50;90.90;;;;;;4819915;29;20188;-63
2021/09/08 08:49:03;;;;;;;4.00;3.30;;;27.90;88.80;;;;;;4818171;29;20210;-63
2021/09/08 08:51:29;;;;;;;5.13;3.70;;;28.00;88.40;;;;;;4822370;29;20946;-63
2021/09/08 08:53:55;;;;;;;6.07;3.93;;;27.80;87.70;;;;;;4819713;29;20533;-65
2021/09/08 08:56:21;;;;;;;3.73;3.43;;;27.40;87.10;;;;;;4816450;29;20485;-63
2021/09/08 08:58:47;;;;;;;5.87;3.87;;;27.00;86.70;;;;;;4828367;29;20246;-63
2021/09/08 09:01:21;;;;;;;4.73;4.23;;;26.60;86.60;;;;;;4818180;29;20421;-63
2021/09/08 09:04:17;;;;;;;6.87;3.80;;;26.30;87.60;;;;;;4814981;29;20467;-63
2021/09/08 09:06:47;;;;;;;4.33;3.93;;;25.90;88.00;;;;;;4809001;29;20556;-63
2021/09/08 09:09:16;;;;;;;7.17;3.83;;;25.80;88.60;;;;;;4817659;29;20465;-63
2021/09/08 09:11:48;;;;;;;6.73;3.70;;;25.60;88.60;;;;;;4820999;29;20441;-63
2021/09/08 09:14:15;;;;;;;4.07;3.67;;;25.50;87.90;;;;;;4819773;29;20464;-64
2021/09/08 09:16:43;;;;;;;4.20;3.90;;;25.30;89.90;;;;;;4818773;29;20481;-64
2021/09/08 09:19:10;;;;;;;4.67;3.93;;;25.20;89.10;;;;;;4812065;29;20476;-63
2021/09/08 09:21:36;;;;;;;5.10;4.50;;;25.10;89.10;;;;;;4822874;29;20449;-64
2021/09/08 09:24:05;;;;;;;5.03;3.70;;;25.10;89.50;;;;;;4815464;29;20993;-63
2021/09/08 09:26:34;;;;;;;4.40;3.70;;;25.10;88.70;;;;;;4821821;29;20456;-63
2021/09/08 09:29:07;;;;;;;5.83;3.50;;;25.10;89.10;;;;;;4820876;29;21029;-63
2021/09/08 09:31:34;;;;;;;4.20;3.17;;;25.20;88.70;;;;;;4820934;29;20841;-63
2021/09/08 09:34:00;;;;;;;7.60;3.87;;;25.20;87.40;;;;;;4816734;29;20560;-63
2021/09/08 09:36:30;;;;;;;5.80;3.73;;;25.20;88.40;;;;;;4820775;29;20481;-65
2021/09/08 09:38:57;;;;;;;5.33;3.73;;;25.30;88.10;;;;;;4821280;29;20455;-65
2021/09/08 09:41:30;;;;;;;7.17;4.03;;;25.30;87.40;;;;;;4816016;29;20847;-63
2021/09/08 09:44:04;;;;;;;4.70;3.93;;;25.30;88.90;;;;;;4814900;29;20476;-65
2021/09/08 09:46:30;;;;;;;6.67;4.00;;;25.40;87.50;;;;;;4822441;29;20440;-65
2021/09/08 09:48:55;;;;;;;4.00;3.60;;;25.40;87.90;;;;;;4826144;29;20881;-65
2021/09/08 09:51:21;;;;;;;4.00;3.50;;;25.50;87.80;;;;;;4821028;29;20209;-64
2021/09/08 09:53:46;;;;;;;4.37;3.27;;;25.50;85.30;;;;;;4822440;29;20558;-63
2021/09/08 09:56:13;;;;;;;4.07;3.57;;;25.50;85.80;;;;;;4820681;29;20240;-65
2021/09/08 09:58:39;;;;;;;6.57;3.87;;;25.30;85.00;;;;;;4824011;29;20216;-63
2021/09/08 10:01:05;;;;;;;4.30;3.70;;;25.30;85.90;;;;;;4821594;29;21000;-65
2021/09/08 10:03:31;;;;;;;3.87;3.47;;;25.20;86.90;;;;;;4818408;29;20227;-63
2021/09/08 10:05:59;;;;;;;4.60;3.70;;;25.20;88.00;;;;;;4821406;29;20437;-63
2021/09/08 10:08:27;;;;;;;3.60;3.30;;;25.30;86.10;;;;;;4820188;29;20640;-63
2021/09/08 10:10:55;;;;;;;4.40;3.63;;;25.30;86.40;;;;;;4820420;29;20490;-63
2021/09/08 10:13:22;;;;;;;4.60;3.27;;;25.40;85.00;;;;;;4824067;29;20460;-63
2021/09/08 10:15:50;;;;;;;5.43;4.10;;;25.40;84.50;;;;;;4819715;29;20484;-63
2021/09/08 10:18:24;;;;;;;3.83;3.43;;;25.50;84.70;;;;;;4823203;29;20588;-63
2021/09/08 10:20:59;;;;;;;6.00;3.77;;;25.50;85.40;;;;;;4820727;29;20444;-64
2021/09/08 10:23:25;;;;;;;4.53;3.80;;;25.60;86.90;;;;;;4818305;29;20466;-63
2021/09/08 10:25:51;;;;;;;4.30;3.90;;;25.60;86.40;;;;;;4817165;29;20975;-64
2021/09/08 10:28:19;;;;;;;4.67;4.13;;;25.70;84.80;;;;;;4818781;29;20715;-65
2021/09/08 10:30:47;;;;;;;4.27;3.87;;;25.70;85.50;;;;;;4817227;29;20491;-63
2021/09/08 10:33:13;;;;;;;4.47;3.93;;;25.70;86.10;;;;;;4821497;29;20474;-64
2021/09/08 10:35:41;;;;;;;4.13;3.73;;;25.80;81.50;;;;;;4823581;29;20522;-63
2021/09/08 10:38:16;;;;;;;5.73;3.90;;;25.80;81.50;;;;;;4828452;29;20452;-63
2021/09/08 10:40:45;;;;;;;5.17;4.23;;;25.80;82.80;;;;;;4827840;29;20492;-63
2021/09/08 10:43:11;;;;;;;4.63;3.97;;;25.90;81.50;;;;;;4823460;29;20444;-63
2021/09/08 10:45:49;;;;;;;4.37;3.93;;;25.90;81.00;;;;;;4824880;29;20856;-65
2021/09/08 10:48:35;;;;;;;5.23;4.17;;;25.90;79.80;;;;;;4826057;29;20514;-65
2021/09/08 10:51:00;;;;;;;6.23;4.10;;;26.00;81.00;;;;;;4825321;29;20951;-64
2021/09/08 10:53:27;;;;;;;5.00;4.40;;;26.00;80.20;;;;;;4822416;29;20531;-63
2021/09/08 10:55:54;;;;;;;6.30;3.80;;;26.00;81.30;;;;;;4817677;29;20303;-63
2021/09/08 10:58:20;;;;;;;5.17;4.07;;;26.10;80.50;;;;;;4813718;29;20472;-63
2021/09/08 11:00:46;;;;;;;13.83;4.77;;;26.10;79.60;;;;;;4811498;29;20434;-63
2021/09/08 11:03:15;;;;;;;8.67;3.93;;;26.20;79.80;;;;;;4814730;29;20571;-63
2021/09/08 11:05:56;;;;;;;7.07;4.20;;;26.20;78.80;;;;;;4820706;29;20446;-64
2021/09/08 11:08:24;;;;;;;14.03;5.47;;;26.20;79.80;;;;;;4818611;29;20464;-64
2021/09/08 11:10:50;;;;;;;6.23;4.23;;;26.20;80.10;;;;;;4819136;29;20517;-63
2021/09/08 11:13:26;;;;;;;7.33;5.03;;;26.20;82.90;;;;;;4814689;29;20483;-65
2021/09/08 11:15:52;;;;;;;4.70;4.07;;;26.20;80.00;;;;;;4817051;29;20508;-63
2021/09/08 11:18:18;;;;;;;5.00;3.97;;;26.20;79.10;;;;;;4815069;29;20490;-65
2021/09/08 11:20:43;;;;;;;3.90;3.60;;;26.20;80.00;;;;;;4814163;29;20540;-64
2021/09/08 11:23:11;;;;;;;4.83;4.07;;;26.20;78.50;;;;;;4814079;29;20182;-63
2021/09/08 11:25:38;;;;;;;4.63;4.00;;;26.20;78.90;;;;;;4812953;29;20647;-63
2021/09/08 11:28:05;;;;;;;4.40;3.93;;;26.20;77.80;;;;;;4815282;29;20448;-63
2021/09/08 11:30:33;;;;;;;5.30;3.93;;;26.30;78.10;;;;;;4813206;29;20444;-63
2021/09/08 11:33:02;;;;;;;5.67;4.10;;;26.30;77.30;;;;;;4812115;29;20452;-63
2021/09/08 11:35:45;;;;;;;4.47;4.07;;;26.30;77.60;;;;;;4818354;29;20519;-65
2021/09/08 11:38:14;;;;;;;4.60;3.57;;;26.30;77.40;;;;;;4816544;29;20494;-64
2021/09/08 11:40:48;;;;;;;6.80;4.30;;;26.40;77.30;;;;;;4815088;29;20478;-62
2021/09/08 11:43:28;;;;;;;6.40;4.57;;;26.40;76.70;;;;;;4817038;29;20533;-63
2021/09/08 11:45:54;;;;;;;5.10;3.93;;;26.30;75.80;;;;;;4820452;29;20472;-62
2021/09/08 11:48:30;;;;;;;5.87;4.60;;;26.30;75.60;;;;;;4821643;29;20901;-63
2021/09/08 11:51:07;;;;;;;5.77;3.83;;;26.30;75.70;;;;;;4824338;29;20197;-62
2021/09/08 11:53:33;;;;;;;5.00;4.17;;;26.40;76.50;;;;;;4826816;29;20485;-63
2021/09/08 11:56:08;;;;;;;5.60;4.10;;;26.40;75.60;;;;;;4823407;29;20496;-62
2021/09/08 11:58:34;;;;;;;4.47;4.07;;;26.40;76.30;;;;;;4822296;29;20468;-64
2021/09/08 12:01:08;;;;;;;4.93;4.13;;;26.40;77.80;;;;;;4822011;29;20425;-63
2021/09/08 12:03:39;;;;;;;6.50;5.03;;;26.40;77.40;;;;;;4819639;29;20214;-63
2021/09/08 12:06:17;;;;;;;5.10;4.47;;;26.40;77.40;;;;;;4824216;29;20939;-63
2021/09/08 12:09:02;;;;;;;4.40;4.00;;;26.40;77.80;;;;;;4817696;29;21037;-62
2021/09/08 12:11:53;;;;;;;3.90;3.53;;;26.50;77.30;;;;;;4818806;29;20548;-63
2021/09/08 12:14:24;;;;;;;6.07;3.93;;;26.50;78.40;;;;;;4820259;29;20505;-63
2021/09/08 12:17:12;;;;;;;4.47;3.53;;;26.60;78.20;;;;;;4822050;29;20585;-62
2021/09/08 12:19:39;;;;;;;4.77;4.33;;;26.60;77.10;;;;;;4815255;29;20481;-63
2021/09/08 12:22:18;;;;;;;5.20;4.67;;;26.70;76.00;;;;;;4813994;29;20442;-64
2021/09/08 12:24:53;;;;;;;6.50;4.03;;;26.70;75.10;;;;;;4814345;29;21118;-62
2021/09/08 12:27:45;;;;;;;4.93;4.33;;;26.70;76.00;;;;;;4817949;29;20932;-64
2021/09/08 12:30:19;;;;;;;7.00;4.53;;;26.70;76.80;;;;;;4819091;29;20463;-62
2021/09/08 12:33:07;;;;;;;4.03;3.73;;;26.70;76.00;;;;;;4820269;29;20474;-63
2021/09/08 12:36:14;;;;;;;4.30;3.90;;;26.70;77.00;;;;;;4816699;29;20484;-63
2021/09/08 12:38:41;;;;;;;5.90;4.43;;;26.70;75.70;;;;;;4809054;29;20485;-63